createdAt,value
2023-03-21T00:00:42.912Z,42.18
2023-03-21T00:03:22.661Z,42.02
2023-03-21T00:05:53.589Z,41.91
2023-03-21T00:08:24.689Z,42.27
2023-03-21T00:10:59.447Z,42.33
2023-03-21T00:13:32.872Z,42.18
2023-03-21T00:16:17.428Z,43.76
2023-03-21T00:18:52.547Z,43.44
2023-03-21T00:24:17.553Z,43.18
2023-03-21T00:26:47.551Z,42.84
2023-03-21T00:29:16.856Z,43.07
2023-03-21T00:31:48.934Z,43.21
2023-03-21T00:34:22.726Z,43.83
2023-03-21T00:37:02.390Z,43.42
2023-03-21T00:39:32.176Z,43.75
2023-03-21T00:42:02.331Z,43.81
2023-03-21T00:44:36.723Z,44.33
2023-03-21T00:47:07.829Z,44.75
2023-03-21T00:49:38.627Z,44.82
2023-03-21T00:52:17.169Z,45.10
2023-03-21T00:54:53.562Z,44.71
2023-03-21T00:57:37.595Z,44.35
2023-03-21T01:00:11.043Z,45.65
2023-03-21T01:03:14.117Z,46.67
2023-03-21T01:06:06.994Z,48.78
2023-03-21T01:08:53.501Z,46.56
2023-03-21T01:11:24.758Z,46.44
2023-03-21T01:14:07.358Z,47.08
2023-03-21T01:16:44.152Z,46.30
2023-03-21T01:19:25.169Z,46.48
2023-03-21T01:21:55.983Z,46.03
2023-03-21T01:24:24.774Z,45.83
2023-03-21T01:26:53.670Z,46.17
2023-03-21T01:29:23.987Z,45.94
2023-03-21T01:31:53.034Z,46.24
2023-03-21T01:34:21.771Z,45.77
2023-03-21T01:36:51.271Z,46.01
2023-03-21T01:39:22.326Z,45.64
2023-03-21T01:41:52.728Z,45.23
2023-03-21T01:44:29.466Z,45.53
2023-03-21T01:47:10.464Z,45.67
2023-03-21T01:49:46.185Z,45.79
2023-03-21T01:52:40.028Z,45.44
2023-03-21T01:55:16.246Z,45.43
2023-03-21T01:58:23.692Z,45.69
2023-03-21T02:01:24.686Z,45.27
2023-03-21T02:03:57.850Z,46.10
2023-03-21T02:06:36.773Z,46.09
2023-03-21T02:09:33.709Z,45.63
2023-03-21T02:12:03.829Z,45.51
2023-03-21T02:14:37.649Z,45.78
2023-03-21T02:17:27.124Z,45.57
2023-03-21T02:20:26.803Z,45.52
2023-03-21T02:23:34.777Z,45.62
2023-03-21T02:26:33.369Z,45.73
2023-03-21T02:29:32.800Z,45.67
2023-03-21T02:32:25.062Z,46.14
2023-03-21T02:35:21.213Z,46.30
2023-03-21T02:38:00.818Z,46.42
2023-03-21T02:40:36.696Z,46.27
2023-03-21T02:43:20.831Z,46.52
2023-03-21T02:45:55.953Z,46.75
2023-03-21T02:48:44.552Z,46.56
2023-03-21T02:51:23.252Z,47.12
2023-03-21T02:54:23.672Z,47.47
2023-03-21T02:56:50.520Z,47.23
2023-03-21T02:59:22.775Z,47.55
2023-03-21T03:01:53.615Z,47.37
2023-03-21T03:04:24.814Z,47.30
2023-03-21T03:07:28.340Z,47.14
2023-03-21T03:10:13.115Z,47.52
2023-03-21T03:12:51.548Z,47.14
2023-03-21T03:15:29.583Z,47.28
2023-03-21T03:18:10.829Z,47.48
2023-03-21T03:20:52.008Z,47.33
2023-03-21T03:23:29.652Z,47.23
2023-03-21T03:26:06.507Z,47.17
2023-03-21T03:28:40.488Z,47.39
2023-03-21T03:31:21.937Z,47.28
2023-03-21T03:33:59.345Z,47.25
2023-03-21T03:36:35.980Z,47.32
2023-03-21T03:39:14.617Z,47.38
2023-03-21T03:42:15.538Z,47.54
2023-03-21T03:44:50.505Z,47.72
2023-03-21T03:47:32.935Z,47.37
2023-03-21T03:50:12.072Z,47.56
2023-03-21T03:52:55.561Z,48.06
2023-03-21T03:55:34.388Z,48.08
2023-03-21T03:58:21.749Z,47.70
2023-03-21T04:00:53.946Z,48.05
2023-03-21T04:03:23.792Z,48.18
2023-03-21T04:05:54.121Z,48.01
2023-03-21T04:08:23.392Z,48.21
2023-03-21T04:10:55.604Z,48.37
2023-03-21T04:13:27.549Z,48.37
2023-03-21T04:16:16.569Z,47.99
2023-03-21T04:18:46.896Z,47.79
2023-03-21T04:21:16.146Z,47.93
2023-03-21T04:23:45.650Z,47.60
2023-03-21T04:26:14.629Z,47.74
2023-03-21T04:29:04.512Z,47.76
2023-03-21T04:31:53.711Z,47.87
2023-03-21T04:34:24.223Z,47.66
2023-03-21T04:36:57.981Z,47.70
2023-03-21T04:39:26.822Z,47.69
2023-03-21T04:41:56.550Z,47.62
2023-03-21T04:44:27.212Z,47.59
2023-03-21T04:46:56.009Z,47.74
2023-03-21T04:49:25.136Z,47.40
2023-03-21T04:51:53.720Z,47.79
2023-03-21T04:54:22.998Z,47.39
2023-03-21T04:56:52.180Z,47.67
2023-03-21T04:59:21.479Z,47.57
2023-03-21T05:01:51.994Z,47.39
2023-03-21T05:04:21.194Z,47.51
2023-03-21T05:06:50.043Z,47.22
2023-03-21T05:09:19.237Z,47.25
2023-03-21T05:11:47.844Z,47.50
2023-03-21T05:14:19.971Z,47.45
2023-03-21T05:16:53.618Z,47.31
2023-03-21T05:19:35.375Z,47.21
2023-03-21T05:22:08.069Z,47.80
2023-03-21T05:24:39.291Z,47.40
2023-03-21T05:27:10.633Z,47.41
2023-03-21T05:29:46.875Z,47.11
2023-03-21T05:32:15.469Z,46.99
2023-03-21T05:34:46.010Z,47.47
2023-03-21T05:37:14.663Z,47.67
2023-03-21T05:39:50.424Z,47.79
2023-03-21T05:42:26.955Z,47.84
2023-03-21T05:44:56.508Z,47.60
2023-03-21T05:47:32.942Z,47.61
2023-03-21T05:50:05.010Z,48.03
2023-03-21T05:52:35.140Z,47.55
2023-03-21T05:55:11.767Z,48.73
2023-03-21T05:57:41.081Z,48.59
2023-03-21T06:00:25.533Z,47.49
2023-03-21T06:03:12.442Z,47.53
2023-03-21T06:06:07.834Z,48.22
2023-03-21T06:08:44.984Z,48.49
2023-03-21T06:11:24.555Z,48.29
2023-03-21T06:13:58.172Z,48.30
2023-03-21T06:16:28.987Z,48.27
2023-03-21T06:18:58.173Z,48.27
2023-03-21T06:21:41.129Z,48.80
2023-03-21T06:24:11.256Z,48.67
2023-03-21T06:26:43.967Z,48.84
2023-03-21T06:29:13.812Z,48.14
2023-03-21T06:31:48.649Z,48.65
2023-03-21T06:34:18.300Z,48.52
2023-03-21T06:36:48.750Z,49.82
2023-03-21T06:39:19.982Z,49.99
2023-03-21T06:41:49.415Z,51.10
2023-03-21T06:44:18.825Z,50.19
2023-03-21T06:46:56.623Z,52.02
2023-03-21T06:49:27.717Z,50.84
2023-03-21T06:52:01.463Z,50.69
2023-03-21T06:54:30.950Z,51.54
2023-03-21T06:57:03.820Z,52.76
2023-03-21T06:59:36.197Z,51.60
2023-03-21T07:02:08.458Z,50.65
2023-03-21T07:04:42.043Z,50.42
2023-03-21T07:07:18.184Z,49.76
2023-03-21T07:09:46.868Z,49.54
2023-03-21T07:12:15.835Z,49.83
2023-03-21T07:15:05.613Z,48.74
2023-03-21T07:17:35.013Z,48.21
2023-03-21T07:20:04.735Z,48.17
2023-03-21T07:22:37.981Z,49.14
2023-03-21T07:25:08.011Z,48.46
2023-03-21T07:27:43.033Z,47.84
2023-03-21T07:30:12.897Z,47.43
2023-03-21T07:32:41.797Z,46.85
2023-03-21T07:35:14.016Z,48.93
2023-03-21T07:37:45.630Z,50.30
2023-03-21T07:40:18.452Z,51.63
2023-03-21T07:42:50.685Z,54.93
2023-03-21T07:45:30.507Z,55.54
2023-03-21T07:47:59.560Z,53.35
2023-03-21T07:50:28.288Z,52.11
2023-03-21T07:52:58.789Z,51.60
2023-03-21T07:55:27.814Z,50.76
2023-03-21T07:57:56.805Z,49.66
2023-03-21T08:00:27.209Z,50.70
2023-03-21T08:02:59.058Z,49.25
2023-03-21T08:05:30.213Z,50.85
2023-03-21T08:08:00.940Z,49.15
2023-03-21T08:10:29.995Z,50.61
2023-03-21T08:12:59.240Z,49.95
2023-03-21T08:15:28.114Z,51.03
2023-03-21T08:17:57.403Z,52.56
2023-03-21T08:20:26.076Z,50.72
2023-03-21T08:22:55.119Z,51.78
2023-03-21T08:25:25.284Z,53.30
2023-03-21T08:27:54.300Z,51.55
2023-03-21T08:30:26.070Z,50.56
2023-03-21T08:33:00.889Z,51.27
2023-03-21T08:35:31.643Z,51.85
2023-03-21T08:38:01.255Z,50.67
2023-03-21T08:40:31.430Z,49.75
2023-03-21T08:43:00.878Z,49.48
2023-03-21T08:45:29.777Z,49.40
2023-03-21T08:47:58.715Z,53.26
2023-03-21T08:50:29.547Z,54.90
2023-03-21T08:52:58.630Z,56.42
2023-03-21T08:55:27.287Z,55.72
2023-03-21T08:57:58.247Z,54.76
2023-03-21T09:00:27.397Z,53.57
2023-03-21T09:02:58.898Z,54.51
2023-03-21T09:05:28.475Z,56.11
2023-03-21T09:07:57.773Z,56.43
2023-03-21T09:10:26.397Z,56.75
2023-03-21T09:12:57.783Z,56.15
2023-03-21T09:15:29.928Z,56.67
2023-03-21T09:18:13.379Z,54.49
2023-03-21T09:20:43.152Z,55.22
2023-03-21T09:23:13.328Z,53.19
2023-03-21T09:25:43.040Z,51.94
2023-03-21T09:28:14.143Z,50.08
2023-03-21T09:30:42.855Z,49.95
2023-03-21T09:33:13.121Z,50.62
2023-03-21T09:35:42.870Z,50.05
2023-03-21T09:38:11.846Z,51.32
2023-03-21T09:41:05.876Z,52.83
2023-03-21T09:43:50.713Z,52.04
2023-03-21T09:46:29.187Z,51.71
2023-03-21T09:49:03.100Z,52.90
2023-03-21T09:51:37.022Z,53.71
2023-03-21T09:54:12.957Z,53.11
2023-03-21T09:56:44.370Z,52.33
2023-03-21T09:59:23.505Z,50.09
2023-03-21T10:01:52.696Z,50.01
2023-03-21T10:04:22.470Z,51.45
2023-03-21T10:06:58.712Z,48.76
2023-03-21T10:09:29.391Z,47.28
2023-03-21T10:12:04.400Z,46.60
2023-03-21T10:14:40.346Z,45.77
2023-03-21T10:17:23.507Z,48.07
2023-03-21T10:20:12.049Z,47.76
2023-03-21T10:22:41.236Z,45.84
2023-03-21T10:25:16.606Z,45.83
2023-03-21T10:27:46.494Z,46.13
2023-03-21T10:30:27.404Z,46.56
2023-03-21T10:32:59.702Z,48.17
2023-03-21T10:35:28.977Z,49.60
2023-03-21T10:37:57.656Z,50.28
2023-03-21T10:40:26.594Z,48.84
2023-03-21T10:42:56.834Z,48.96
2023-03-21T10:45:27.415Z,48.36
2023-03-21T10:47:58.268Z,48.22
2023-03-21T10:50:31.400Z,48.08
2023-03-21T10:53:01.878Z,47.42
2023-03-21T10:55:33.142Z,47.55
2023-03-21T10:58:08.686Z,47.10
2023-03-21T11:00:41.701Z,48.50
2023-03-21T11:03:22.974Z,47.80
2023-03-21T11:05:56.964Z,47.27
2023-03-21T11:08:27.390Z,48.13
2023-03-21T11:11:03.209Z,47.52
2023-03-21T11:13:37.861Z,46.54
2023-03-21T11:16:10.924Z,45.79
2023-03-21T11:18:44.573Z,44.22
2023-03-21T11:21:16.490Z,43.26
2023-03-21T11:23:48.237Z,42.03
2023-03-21T11:26:24.298Z,41.80
2023-03-21T11:28:53.700Z,41.73
2023-03-21T11:31:25.046Z,41.41
2023-03-21T11:33:57.163Z,40.71
2023-03-21T11:36:34.023Z,40.24
2023-03-21T11:39:15.808Z,42.21
2023-03-21T11:41:49.156Z,42.54
2023-03-21T11:44:29.591Z,42.23
2023-03-21T11:47:01.122Z,41.50
2023-03-21T11:49:30.085Z,39.98
2023-03-21T11:52:16.217Z,39.96
2023-03-21T11:55:06.774Z,39.89
2023-03-21T11:57:45.268Z,40.92
2023-03-21T12:00:22.506Z,39.57
2023-03-21T12:03:30.741Z,38.34
2023-03-21T12:06:03.319Z,37.92
2023-03-21T12:08:43.788Z,37.73
2023-03-21T12:11:18.857Z,38.49
2023-03-21T12:13:58.879Z,37.29
2023-03-21T12:16:46.536Z,36.72
2023-03-21T12:19:56.806Z,35.44
2023-03-21T12:22:33.924Z,34.83
2023-03-21T12:25:08.826Z,35.11
2023-03-21T12:27:51.553Z,33.84
2023-03-21T12:30:38.337Z,33.69
2023-03-21T12:33:21.386Z,34.05
2023-03-21T12:36:02.921Z,35.76
2023-03-21T12:38:41.762Z,36.46
2023-03-21T12:41:25.596Z,35.62
2023-03-21T12:44:00.003Z,35.58
2023-03-21T12:46:36.555Z,35.86
2023-03-21T12:49:11.242Z,34.61
2023-03-21T12:51:44.980Z,33.80
2023-03-21T12:54:24.495Z,34.83
2023-03-21T12:56:58.593Z,34.90
2023-03-21T12:59:36.760Z,35.14
2023-03-21T13:02:18.522Z,35.08
2023-03-21T13:05:04.661Z,34.67
2023-03-21T13:07:38.664Z,35.38
2023-03-21T13:10:15.469Z,35.65
2023-03-21T13:12:57.002Z,34.58
2023-03-21T13:15:50.883Z,35.09
2023-03-21T13:18:41.762Z,35.05
2023-03-21T13:21:17.255Z,36.05
2023-03-21T13:24:02.187Z,36.06
2023-03-21T13:26:38.073Z,36.17
2023-03-21T13:29:24.944Z,35.96
2023-03-21T13:31:57.519Z,36.10
2023-03-21T13:34:27.891Z,36.43
2023-03-21T13:36:57.918Z,36.15
2023-03-21T13:39:31.180Z,36.68
2023-03-21T13:42:05.680Z,37.39
2023-03-21T13:44:42.868Z,36.79
2023-03-21T13:47:38.900Z,35.72
2023-03-21T13:50:50.917Z,34.97
2023-03-21T13:53:27.305Z,33.84
2023-03-21T13:56:24.441Z,35.92
2023-03-21T13:58:56.323Z,37.36
2023-03-21T14:01:34.151Z,38.46
2023-03-21T14:04:12.359Z,35.14
2023-03-21T14:06:47.599Z,34.39
2023-03-21T14:09:24.354Z,33.71
2023-03-21T14:11:58.786Z,33.42
2023-03-21T14:14:38.883Z,33.78
2023-03-21T14:17:13.986Z,33.81
2023-03-21T14:19:42.972Z,33.84
2023-03-21T14:22:14.615Z,35.15
2023-03-21T14:24:48.993Z,36.79
2023-03-21T14:27:21.681Z,35.92
2023-03-21T14:29:53.571Z,35.38
2023-03-21T14:32:26.630Z,35.83
2023-03-21T14:34:56.381Z,35.78
2023-03-21T14:37:31.511Z,35.90
2023-03-21T14:40:02.191Z,35.40
2023-03-21T14:42:37.726Z,34.93
2023-03-21T14:45:20.672Z,34.69
2023-03-21T14:47:57.649Z,35.70
2023-03-21T14:50:33.895Z,35.13
2023-03-21T14:53:03.003Z,33.88
2023-03-21T14:55:32.031Z,33.72
2023-03-21T14:58:03.479Z,31.73
2023-03-21T15:00:35.728Z,31.71
2023-03-21T15:03:05.644Z,33.26
2023-03-21T15:05:37.350Z,36.72
2023-03-21T15:08:10.705Z,38.32
2023-03-21T15:10:40.403Z,39.71
2023-03-21T15:13:19.702Z,39.44
2023-03-21T15:15:49.112Z,40.13
2023-03-21T15:18:26.822Z,38.91
2023-03-21T15:20:58.894Z,38.12
2023-03-21T15:23:32.499Z,38.62
2023-03-21T15:26:03.849Z,38.19
2023-03-21T15:28:34.791Z,38.14
2023-03-21T15:31:04.727Z,38.41
2023-03-21T15:33:34.596Z,37.95
2023-03-21T15:36:11.365Z,37.73
2023-03-21T15:38:45.144Z,37.66
2023-03-21T15:41:29.968Z,37.24
2023-03-21T15:44:11.728Z,36.96
2023-03-21T15:46:43.358Z,36.99
2023-03-21T15:49:21.209Z,36.59
2023-03-21T15:51:54.384Z,36.79
2023-03-21T15:54:25.909Z,36.68
2023-03-21T15:56:56.569Z,37.80
2023-03-21T15:59:31.552Z,37.45
2023-03-21T16:02:00.756Z,37.49
2023-03-21T16:04:30.432Z,37.58
2023-03-21T16:07:01.635Z,37.30
2023-03-21T16:09:40.971Z,37.20
2023-03-21T16:12:13.698Z,36.80
2023-03-21T16:14:44.052Z,37.26
2023-03-21T16:17:27.517Z,38.58
2023-03-21T16:19:56.723Z,38.12
2023-03-21T16:22:26.783Z,38.46
2023-03-21T16:24:55.770Z,39.43
2023-03-21T16:27:24.363Z,39.56
2023-03-21T16:29:54.575Z,39.10
2023-03-21T16:32:23.946Z,39.51
2023-03-21T16:34:53.731Z,38.98
2023-03-21T16:37:22.574Z,38.50
2023-03-21T16:39:51.496Z,38.39
2023-03-21T16:42:20.143Z,38.92
2023-03-21T16:44:49.123Z,38.60
2023-03-21T16:47:21.481Z,39.38
2023-03-21T16:49:50.579Z,38.74
2023-03-21T16:52:19.245Z,38.70
2023-03-21T16:54:48.265Z,38.42
2023-03-21T16:57:27.633Z,39.47
2023-03-21T16:59:57.703Z,39.11
2023-03-21T17:02:27.760Z,39.08
2023-03-21T17:04:56.837Z,38.75
2023-03-21T17:07:25.445Z,38.86
2023-03-21T17:09:54.375Z,39.00
2023-03-21T17:12:23.063Z,38.96
2023-03-21T17:14:52.187Z,39.00
2023-03-21T17:17:21.665Z,39.30
2023-03-21T17:19:51.917Z,39.17
2023-03-21T17:22:20.449Z,39.94
2023-03-21T17:24:49.359Z,39.35
2023-03-21T17:27:18.499Z,39.51
2023-03-21T17:29:47.680Z,39.55
2023-03-21T17:32:16.455Z,39.44
2023-03-21T17:34:45.540Z,39.84
2023-03-21T17:37:16.361Z,39.67
2023-03-21T17:39:46.079Z,40.44
2023-03-21T17:42:18.284Z,40.24
2023-03-21T17:44:47.483Z,40.15
2023-03-21T17:47:16.939Z,40.15
2023-03-21T17:49:46.639Z,40.35
2023-03-21T17:52:16.751Z,40.16
2023-03-21T17:54:45.866Z,40.62
2023-03-21T17:57:14.583Z,41.30
2023-03-21T17:59:43.881Z,40.85
2023-03-21T18:02:12.637Z,41.11
2023-03-21T18:04:41.868Z,40.97
2023-03-21T18:07:32.526Z,41.37
2023-03-21T18:10:06.299Z,41.69
2023-03-21T18:12:34.953Z,41.41
2023-03-21T18:15:04.168Z,41.62
2023-03-21T18:17:32.824Z,41.95
2023-03-21T18:20:09.257Z,42.04
2023-03-21T18:22:39.561Z,43.14
2023-03-21T18:25:09.413Z,43.82
2023-03-21T18:28:02.128Z,45.53
2023-03-21T18:30:47.641Z,47.05
2023-03-21T18:33:16.479Z,47.38
2023-03-21T18:35:46.753Z,48.15
2023-03-21T18:38:17.794Z,47.06
2023-03-21T18:40:47.239Z,47.69
2023-03-21T18:43:59.395Z,48.28
2023-03-21T18:46:05.440Z,48.37
2023-03-21T18:48:35.606Z,47.62
2023-03-21T18:51:05.792Z,47.86
2023-03-21T18:53:35.998Z,48.16
2023-03-21T18:56:09.933Z,48.33
2023-03-21T18:58:39.608Z,48.55
2023-03-21T19:01:09.063Z,49.04
2023-03-21T19:03:38.281Z,49.02
2023-03-21T19:06:08.601Z,48.66
2023-03-21T19:08:41.742Z,47.91
2023-03-21T19:11:11.220Z,47.87
2023-03-21T19:13:40.029Z,46.23
2023-03-21T19:16:11.331Z,46.08
2023-03-21T19:18:57.332Z,44.03
2023-03-21T19:21:26.513Z,44.60
2023-03-21T19:26:47.683Z,44.93
2023-03-21T19:29:16.572Z,45.02
2023-03-21T19:31:46.531Z,44.99
2023-03-21T19:34:15.563Z,44.27
2023-03-21T19:36:46.154Z,44.19
2023-03-21T19:39:22.695Z,43.61
2023-03-21T19:41:55.335Z,44.00
2023-03-21T19:44:33.389Z,44.45
2023-03-21T19:47:02.498Z,44.78
2023-03-21T19:49:48.846Z,44.22
2023-03-21T19:52:20.645Z,44.30
2023-03-21T19:54:50.648Z,43.93
2023-03-21T19:57:19.655Z,43.76
2023-03-21T19:59:53.902Z,43.83
2023-03-21T20:02:34.890Z,42.37
2023-03-21T20:05:05.164Z,41.23
2023-03-21T20:07:34.083Z,41.68
2023-03-21T20:10:04.594Z,40.04
2023-03-21T20:12:33.809Z,40.11
2023-03-21T20:15:16.693Z,39.09
2023-03-21T20:17:47.706Z,38.80
2023-03-21T20:20:18.332Z,38.52
2023-03-21T20:23:07.871Z,38.65
2023-03-21T20:25:40.528Z,38.30
2023-03-21T20:28:16.175Z,38.11
2023-03-21T20:30:50.466Z,37.67
2023-03-21T20:33:19.870Z,37.27
2023-03-21T20:38:39.428Z,36.35
2023-03-21T20:41:09.488Z,36.51
2023-03-21T20:46:27.930Z,36.48
2023-03-21T20:48:59.769Z,36.20
2023-03-21T20:54:18.158Z,36.39
2023-03-21T20:56:48.099Z,36.80
2023-03-21T20:59:26.161Z,37.09
2023-03-21T21:01:57.320Z,36.94
2023-03-21T21:07:20.364Z,37.47
2023-03-21T21:09:50.427Z,37.48
2023-03-21T21:12:20.633Z,37.32
2023-03-21T21:14:49.855Z,37.89
2023-03-21T21:17:35.187Z,38.40
2023-03-21T21:20:16.640Z,38.85
2023-03-21T21:22:58.637Z,38.65
2023-03-21T21:25:30.898Z,38.02
2023-03-21T21:28:02.092Z,37.42
2023-03-21T21:30:32.692Z,37.69
2023-03-21T21:33:01.912Z,38.16
2023-03-21T21:35:33.569Z,38.01
2023-03-21T21:38:02.291Z,38.85
2023-03-21T21:40:31.491Z,38.58
2023-03-21T21:43:03.746Z,37.68
2023-03-21T21:45:33.612Z,38.46
2023-03-21T21:48:02.433Z,39.37
2023-03-21T21:50:31.455Z,39.16
2023-03-21T21:53:03.785Z,39.31
2023-03-21T21:55:33.835Z,39.89
2023-03-21T21:58:05.103Z,40.23
2023-03-21T22:00:34.196Z,40.58
2023-03-21T22:03:03.265Z,40.47
2023-03-21T22:05:32.539Z,40.24
2023-03-21T22:08:01.230Z,40.13
2023-03-21T22:10:30.089Z,40.28
2023-03-21T22:12:58.613Z,40.98
2023-03-21T22:15:29.241Z,40.68
2023-03-21T22:17:57.883Z,40.82
2023-03-21T22:20:26.972Z,39.93
2023-03-21T22:22:57.224Z,41.13
2023-03-21T22:25:26.704Z,41.35
2023-03-21T22:27:55.268Z,41.12
2023-03-21T22:30:24.647Z,41.17
2023-03-21T22:33:08.531Z,41.77
2023-03-21T22:35:38.797Z,42.09
2023-03-21T22:38:07.491Z,41.64
2023-03-21T22:40:36.746Z,41.95
2023-03-21T22:43:05.348Z,41.74
2023-03-21T22:45:34.965Z,41.73
2023-03-21T22:48:06.284Z,42.27
2023-03-21T22:50:35.284Z,41.20
2023-03-21T22:53:03.910Z,41.92
2023-03-21T22:55:33.031Z,41.59
2023-03-21T22:58:01.636Z,41.64
2023-03-21T23:00:30.811Z,40.98
2023-03-21T23:02:59.915Z,41.37
2023-03-21T23:05:30.553Z,41.23
2023-03-21T23:07:59.273Z,41.48
2023-03-21T23:10:28.021Z,41.34
2023-03-21T23:12:56.503Z,41.50
2023-03-21T23:15:25.373Z,40.95
2023-03-21T23:17:54.029Z,40.63
2023-03-21T23:20:23.149Z,40.47
2023-03-21T23:22:53.062Z,40.69
2023-03-21T23:25:21.999Z,40.29
2023-03-21T23:27:50.623Z,40.55
2023-03-21T23:30:19.532Z,40.44
2023-03-21T23:32:48.314Z,40.60
2023-03-21T23:35:17.588Z,40.46
2023-03-21T23:37:52.413Z,40.80
2023-03-21T23:40:23.091Z,40.46
2023-03-21T23:42:51.718Z,40.95
2023-03-21T23:45:20.660Z,40.92
2023-03-21T23:47:49.382Z,40.81
2023-03-21T23:50:18.438Z,40.90
2023-03-21T23:52:47.064Z,41.13
2023-03-21T23:55:16.036Z,41.32
2023-03-21T23:57:45.893Z,41.29
